Time;durP1;ratioP1;P1;durP2;ratioP2;P2;SDS_P1;SDS_P2;PMS_P1;PMS_P2;Temp;Humidity;BMP_temperature;BMP_pressure;BME280_temperature;BME280_humidity;BME280_pressure;Samples;Min_cycle;Max_cycle;Signal;HPM_P1;HPM_P2
2022/11/21 00:01:34;;;;;;;3.92;2.40;;;21.90;92.60;;;;;;6280599;27;82513;-69
2022/11/21 00:04:37;;;;;;;4.00;2.28;;;21.90;92.50;;;;;;6282634;27;82569;-70
2022/11/21 00:07:39;;;;;;;4.65;2.30;;;21.90;92.50;;;;;;6283625;27;81690;-69
2022/11/21 00:10:42;;;;;;;3.30;2.17;;;21.90;92.60;;;;;;6284245;27;82459;-69
2022/11/21 00:13:44;;;;;;;4.25;2.38;;;21.90;92.50;;;;;;6284517;27;84289;-70
2022/11/21 00:16:46;;;;;;;3.45;2.22;;;21.90;92.60;;;;;;6273803;27;82432;-70
2022/11/21 00:19:49;;;;;;;2.58;2.10;;;21.80;92.60;;;;;;6283708;27;84343;-70
2022/11/21 00:22:52;;;;;;;3.80;2.22;;;21.80;92.60;;;;;;6282978;27;82348;-70
2022/11/21 00:25:54;;;;;;;2.65;2.00;;;21.80;92.60;;;;;;6283988;27;82544;-71
2022/11/21 00:28:56;;;;;;;3.30;2.05;;;21.80;92.60;;;;;;6282637;27;82285;-69
2022/11/21 00:31:58;;;;;;;2.83;2.00;;;21.80;92.60;;;;;;6278360;27;82750;-70
2022/11/21 00:35:01;;;;;;;3.13;2.00;;;21.80;92.30;;;;;;6283407;27;82392;-69
2022/11/21 00:38:03;;;;;;;3.35;1.90;;;21.80;92.30;;;;;;6283822;27;81363;-69
2022/11/21 00:41:06;;;;;;;2.80;2.05;;;21.80;92.20;;;;;;6276324;27;82350;-70
2022/11/21 00:44:08;;;;;;;3.85;2.20;;;21.80;92.20;;;;;;6283303;27;82942;-70
2022/11/21 00:47:10;;;;;;;4.25;2.35;;;21.70;92.20;;;;;;6286787;27;82506;-70
2022/11/21 00:50:13;;;;;;;3.35;2.15;;;21.70;92.30;;;;;;6287878;27;82003;-70
2022/11/21 00:53:15;;;;;;;2.35;1.80;;;21.70;92.30;;;;;;6283852;27;82515;-70
2022/11/21 00:56:17;;;;;;;3.75;2.38;;;21.70;92.30;;;;;;6278864;27;82664;-70
2022/11/21 00:59:19;;;;;;;3.65;1.98;;;21.70;92.30;;;;;;6287208;27;82413;-70
2022/11/21 01:02:21;;;;;;;2.28;1.85;;;21.70;92.30;;;;;;6285650;27;82761;-69
2022/11/21 01:05:25;;;;;;;2.67;1.80;;;21.70;92.30;;;;;;6284127;27;84294;-70
2022/11/21 01:08:27;;;;;;;2.88;1.90;;;21.70;92.40;;;;;;6286348;27;82516;-68
2022/11/21 01:11:29;;;;;;;3.38;2.30;;;21.70;92.50;;;;;;6286619;27;84162;-70
2022/11/21 01:14:31;;;;;;;2.78;1.90;;;21.70;92.40;;;;;;6286856;27;84113;-69
2022/11/21 01:17:33;;;;;;;2.60;1.83;;;21.70;92.30;;;;;;6273518;27;84020;-69
2022/11/21 01:20:39;;;;;;;2.97;1.88;;;21.70;92.30;;;;;;6282962;27;84161;-70
2022/11/21 01:23:41;;;;;;;2.88;1.80;;;21.70;92.20;;;;;;6277513;27;84090;-68
2022/11/21 01:26:43;;;;;;;3.55;1.92;;;21.70;92.20;;;;;;6286790;27;84054;-70
2022/11/21 01:29:45;;;;;;;2.25;1.73;;;21.60;92.20;;;;;;6286217;27;84188;-70
2022/11/21 01:32:49;;;;;;;2.95;2.20;;;21.60;92.10;;;;;;6285408;27;83908;-69
2022/11/21 01:35:52;;;;;;;3.05;2.05;;;21.60;92.10;;;;;;6282489;27;84166;-69
2022/11/21 01:38:57;;;;;;;2.25;1.80;;;21.60;92.10;;;;;;6284953;27;83408;-68
2022/11/21 01:41:59;;;;;;;2.65;1.90;;;21.60;92.10;;;;;;6279468;27;84279;-69
2022/11/21 01:45:01;;;;;;;1.88;1.58;;;21.60;92.20;;;;;;6286017;27;84137;-69
2022/11/21 01:48:03;;;;;;;2.30;1.70;;;21.60;92.50;;;;;;6284065;27;84064;-69
2022/11/21 01:51:11;;;;;;;2.15;1.80;;;21.60;92.10;;;;;;6283097;27;83166;-70
2022/11/21 01:54:17;;;;;;;2.03;1.52;;;21.60;92.10;;;;;;6284829;27;84281;-69
2022/11/21 01:57:24;;;;;;;2.60;1.92;;;21.60;92.00;;;;;;6284155;27;84592;-70
2022/11/21 02:00:28;;;;;;;2.47;1.77;;;21.60;92.00;;;;;;6284273;27;82024;-70
2022/11/21 02:03:36;;;;;;;3.33;2.10;;;21.50;92.00;;;;;;6281696;27;84029;-70
2022/11/21 02:06:40;;;;;;;2.20;1.70;;;21.60;92.00;;;;;;6285632;27;83058;-69
2022/11/21 02:09:44;;;;;;;2.75;1.90;;;21.50;92.00;;;;;;6274490;27;83510;-69
2022/11/21 02:12:49;;;;;;;1.67;1.55;;;21.50;92.00;;;;;;6279533;27;82948;-70
2022/11/21 02:15:51;;;;;;;2.00;1.45;;;21.50;92.10;;;;;;6281105;27;84099;-69
2022/11/21 02:18:53;;;;;;;2.75;1.70;;;21.50;92.20;;;;;;6281375;27;85080;-69
2022/11/21 02:22:06;;;;;;;2.60;1.70;;;21.50;92.20;;;;;;6279232;27;84085;-69
2022/11/21 02:25:14;;;;;;;2.05;1.52;;;21.50;92.20;;;;;;6272254;27;84145;-70
2022/11/21 02:28:19;;;;;;;3.10;2.00;;;21.50;92.20;;;;;;6274133;27;84079;-69
2022/11/21 02:31:21;;;;;;;2.60;1.77;;;21.50;92.20;;;;;;6283653;27;84443;-69
2022/11/21 02:34:23;;;;;;;2.17;1.60;;;21.40;92.10;;;;;;6285767;27;84185;-69
2022/11/21 02:37:25;;;;;;;2.53;1.77;;;21.50;92.10;;;;;;6284529;27;83479;-69
2022/11/21 02:40:33;;;;;;;1.75;1.48;;;21.40;92.10;;;;;;6264677;27;83051;-70
2022/11/21 02:43:41;;;;;;;1.88;1.48;;;21.40;92.10;;;;;;6281086;27;84215;-70
2022/11/21 02:46:49;;;;;;;1.98;1.50;;;21.40;92.10;;;;;;6283772;27;84170;-70
2022/11/21 02:49:57;;;;;;;2.42;1.73;;;21.40;92.10;;;;;;6280161;27;85022;-70
2022/11/21 02:52:59;;;;;;;1.95;1.40;;;21.40;92.20;;;;;;6280419;27;83018;-69
2022/11/21 02:56:02;;;;;;;1.67;1.40;;;21.40;92.20;;;;;;6283025;27;83912;-69
2022/11/21 02:59:04;;;;;;;2.00;1.52;;;21.30;92.10;;;;;;6284659;27;84155;-70
2022/11/21 03:02:06;;;;;;;1.75;1.30;;;21.30;92.10;;;;;;6285126;27;84304;-69
2022/11/21 03:05:10;;;;;;;2.00;1.50;;;21.40;92.20;;;;;;6284175;27;84307;-70
2022/11/21 03:08:12;;;;;;;1.90;1.40;;;21.30;92.20;;;;;;6275147;27;84186;-70
2022/11/21 03:11:16;;;;;;;3.08;1.60;;;21.30;92.10;;;;;;6284798;27;82452;-70
2022/11/21 03:14:18;;;;;;;4.13;2.17;;;21.30;92.50;;;;;;6282940;27;84144;-70
2022/11/21 03:17:20;;;;;;;2.00;1.40;;;21.40;92.10;;;;;;6274755;27;84254;-70
2022/11/21 03:20:22;;;;;;;1.60;1.50;;;21.40;92.20;;;;;;6272173;27;85117;-70
2022/11/21 03:23:24;;;;;;;1.65;1.40;;;21.30;92.10;;;;;;6282050;27;84199;-69
2022/11/21 03:26:28;;;;;;;1.40;1.30;;;21.30;92.10;;;;;;6272477;27;84128;-70
2022/11/21 03:29:30;;;;;;;1.67;1.38;;;21.30;92.10;;;;;;6283298;27;84065;-69
2022/11/21 03:32:32;;;;;;;3.28;1.83;;;21.30;92.10;;;;;;6277143;27;84108;-70
2022/11/21 03:35:34;;;;;;;1.88;1.40;;;21.30;92.20;;;;;;6285035;27;84485;-70
2022/11/21 03:38:36;;;;;;;1.90;1.42;;;21.30;92.20;;;;;;6274432;27;84143;-69
2022/11/21 03:41:39;;;;;;;3.78;2.00;;;21.20;92.20;;;;;;6268378;27;82147;-70
2022/11/21 03:44:41;;;;;;;1.70;1.30;;;21.30;92.30;;;;;;6275451;27;82608;-70
2022/11/21 03:47:43;;;;;;;1.58;1.40;;;21.20;92.30;;;;;;6281755;27;84178;-70
2022/11/21 03:50:45;;;;;;;1.95;1.40;;;21.20;92.20;;;;;;6283121;27;84970;-70
2022/11/21 03:53:48;;;;;;;1.45;1.30;;;21.30;92.20;;;;;;6283817;27;84127;-70
2022/11/21 03:56:51;;;;;;;1.70;1.27;;;21.30;92.20;;;;;;6281245;27;84137;-70
2022/11/21 03:59:53;;;;;;;1.38;1.20;;;21.30;92.10;;;;;;6283295;27;82983;-70
2022/11/21 04:02:55;;;;;;;2.20;1.42;;;21.20;92.20;;;;;;6282714;27;83039;-70
2022/11/21 04:05:57;;;;;;;1.55;1.30;;;21.20;92.20;;;;;;6283324;27;84129;-69
2022/11/21 04:08:59;;;;;;;2.50;1.50;;;21.20;92.20;;;;;;6283058;27;84004;-70
2022/11/21 04:12:03;;;;;;;3.38;1.83;;;21.20;92.10;;;;;;6282443;27;83679;-69
2022/11/21 04:15:06;;;;;;;1.70;1.30;;;21.20;92.10;;;;;;6283034;27;83075;-69
2022/11/21 04:18:08;;;;;;;1.92;1.40;;;21.20;92.20;;;;;;6273112;27;84179;-70
2022/11/21 04:21:10;;;;;;;1.50;1.35;;;21.10;92.10;;;;;;6282306;27;85806;-68
2022/11/21 04:24:12;;;;;;;1.90;1.30;;;21.20;92.20;;;;;;6285750;27;84504;-66
2022/11/21 04:27:15;;;;;;;1.55;1.20;;;21.20;92.20;;;;;;6287704;27;83814;-67
2022/11/21 04:30:17;;;;;;;1.73;1.30;;;21.20;92.10;;;;;;6274842;27;84576;-70
2022/11/21 04:33:20;;;;;;;2.30;1.30;;;21.10;92.00;;;;;;6273640;27;83130;-69
2022/11/21 04:36:22;;;;;;;1.77;1.30;;;21.10;92.10;;;;;;6285022;27;84247;-69
2022/11/21 04:39:24;;;;;;;1.60;1.15;;;21.20;92.10;;;;;;6286093;27;84152;-69
2022/11/21 04:42:27;;;;;;;3.63;1.63;;;21.20;92.00;;;;;;6285747;27;83583;-69
2022/11/21 04:45:29;;;;;;;2.90;1.52;;;21.20;92.00;;;;;;6286084;27;84257;-69
2022/11/21 04:48:32;;;;;;;1.40;1.20;;;21.20;92.00;;;;;;6273960;27;84094;-69
2022/11/21 04:51:34;;;;;;;1.65;1.08;;;21.20;92.00;;;;;;6285842;27;85798;-70
2022/11/21 04:54:36;;;;;;;1.38;1.10;;;21.20;91.90;;;;;;6286729;27;84163;-70
2022/11/21 04:57:39;;;;;;;2.35;1.25;;;21.20;91.90;;;;;;6286222;27;82950;-70
2022/11/21 05:00:41;;;;;;;1.40;1.20;;;21.20;91.90;;;;;;6287480;27;84283;-69
2022/11/21 05:03:43;;;;;;;1.75;1.05;;;21.20;91.90;;;;;;6272833;27;84158;-69
2022/11/21 05:06:45;;;;;;;1.80;1.23;;;21.30;91.90;;;;;;6285667;27;84319;-70
2022/11/21 05:09:47;;;;;;;1.30;1.00;;;21.30;91.90;;;;;;6287063;27;83085;-70
2022/11/21 05:16:16;;;;;;;1.73;1.02;;;21.30;91.80;;;;;;6285007;27;83132;-69
2022/11/21 05:19:18;;;;;;;1.52;1.10;;;21.30;91.80;;;;;;6285963;27;84287;-70
2022/11/21 05:22:20;;;;;;;1.17;1.00;;;21.40;91.80;;;;;;6282506;27;85172;-70
2022/11/21 05:25:22;;;;;;;1.10;1.00;;;21.40;91.80;;;;;;6285801;27;84214;-70
2022/11/21 05:28:26;;;;;;;1.35;1.10;;;21.40;91.80;;;;;;6283739;27;84624;-70
2022/11/21 05:31:28;;;;;;;1.50;1.17;;;21.30;91.70;;;;;;6281408;27;84205;-69
2022/11/21 05:34:30;;;;;;;1.90;1.17;;;21.40;91.70;;;;;;6284209;27;84157;-69
2022/11/21 05:37:32;;;;;;;1.33;1.00;;;21.40;91.70;;;;;;6286540;27;83107;-68
2022/11/21 05:40:34;;;;;;;1.77;1.15;;;21.40;91.70;;;;;;6285863;27;84176;-70
2022/11/21 05:43:46;;;;;;;1.20;1.00;;;21.40;91.70;;;;;;6285871;27;82758;-70
2022/11/21 05:46:48;;;;;;;1.17;1.08;;;21.40;91.70;;;;;;6284891;27;83083;-69
2022/11/21 05:49:50;;;;;;;1.25;1.05;;;21.40;91.60;;;;;;6284659;27;84062;-70
2022/11/21 05:52:52;;;;;;;1.13;1.02;;;21.50;91.70;;;;;;6284790;27;85103;-68
2022/11/21 05:55:54;;;;;;;1.00;0.90;;;21.50;91.60;;;;;;6286463;27;84034;-70
2022/11/21 05:58:58;;;;;;;1.58;1.00;;;21.50;91.60;;;;;;6281212;27;84025;-69
2022/11/21 06:05:20;;;;;;;3.22;1.50;;;21.50;91.60;;;;;;6280755;27;82582;-70
2022/11/21 06:08:22;;;;;;;2.15;1.08;;;21.50;91.50;;;;;;6285892;27;84271;-70
2022/11/21 06:11:24;;;;;;;2.03;1.00;;;21.60;91.60;;;;;;6283357;27;84152;-70
2022/11/21 06:14:27;;;;;;;1.67;1.10;;;21.60;91.60;;;;;;6285213;27;83827;-69
2022/11/21 06:17:29;;;;;;;1.98;1.38;;;21.60;91.60;;;;;;6285108;27;84409;-70
2022/11/21 06:20:31;;;;;;;5.30;1.13;;;21.60;91.60;;;;;;6275189;27;84029;-69
2022/11/21 06:23:34;;;;;;;5.10;1.33;;;21.60;91.60;;;;;;6284158;27;85099;-70
2022/11/21 06:26:36;;;;;;;3.20;1.13;;;21.60;91.60;;;;;;6274535;27;84167;-70
2022/11/21 06:29:39;;;;;;;2.28;1.15;;;21.60;91.60;;;;;;6285641;27;84168;-69
2022/11/21 06:32:41;;;;;;;4.57;1.67;;;21.60;91.50;;;;;;6271959;27;84298;-70
2022/11/21 06:35:43;;;;;;;3.33;1.73;;;21.60;91.50;;;;;;6284903;27;84517;-70
2022/11/21 06:38:46;;;;;;;2.65;1.30;;;21.60;91.50;;;;;;6285306;27;84307;-70
2022/11/21 06:41:49;;;;;;;1.65;1.13;;;21.60;91.50;;;;;;6284032;27;84366;-70
2022/11/21 06:44:53;;;;;;;3.63;1.25;;;21.60;91.50;;;;;;6284234;27;83311;-70
2022/11/21 06:47:55;;;;;;;3.65;1.20;;;21.60;91.50;;;;;;6284590;27;84014;-70
2022/11/21 06:50:57;;;;;;;2.55;1.00;;;21.60;91.50;;;;;;6284967;27;83062;-70
2022/11/21 06:53:59;;;;;;;2.25;1.23;;;21.60;91.50;;;;;;6284166;27;85214;-70
2022/11/21 06:57:01;;;;;;;2.78;1.27;;;21.60;91.40;;;;;;6283630;27;84170;-69
2022/11/21 07:00:06;;;;;;;3.25;1.38;;;21.60;91.40;;;;;;6284495;27;84610;-70
2022/11/21 07:03:08;;;;;;;6.65;2.03;;;21.60;91.40;;;;;;6282585;27;83975;-69
2022/11/21 07:06:11;;;;;;;1.95;1.10;;;21.60;91.40;;;;;;6284827;27;84478;-70
2022/11/21 07:09:13;;;;;;;2.17;1.08;;;21.60;91.40;;;;;;6284388;27;84045;-70
2022/11/21 07:15:36;;;;;;;1.88;1.00;;;21.70;91.40;;;;;;6283520;27;81584;-68
2022/11/21 07:18:38;;;;;;;2.45;0.90;;;21.70;91.40;;;;;;6272677;27;84091;-69
2022/11/21 07:21:41;;;;;;;1.88;1.35;;;21.60;91.40;;;;;;6265879;27;84616;-70
2022/11/21 07:24:43;;;;;;;2.50;1.38;;;21.70;91.40;;;;;;6281414;27;85239;-69
2022/11/21 07:27:45;;;;;;;1.90;1.27;;;21.70;91.40;;;;;;6283987;27;84263;-70
2022/11/21 07:30:49;;;;;;;1.98;1.20;;;21.70;91.40;;;;;;6269764;27;84222;-70
2022/11/21 07:33:51;;;;;;;1.67;1.00;;;21.70;91.40;;;;;;6273016;27;83409;-70
2022/11/21 07:36:53;;;;;;;2.00;1.10;;;21.70;91.40;;;;;;6282653;27;84153;-69
2022/11/21 07:39:55;;;;;;;1.75;1.08;;;21.70;91.40;;;;;;6282996;27;84166;-70
2022/11/21 07:43:01;;;;;;;2.10;1.10;;;21.70;91.30;;;;;;6283183;27;84089;-70
2022/11/21 07:46:05;;;;;;;1.90;1.15;;;21.70;91.40;;;;;;6271271;27;82254;-70
2022/11/21 07:49:07;;;;;;;1.10;1.00;;;21.70;91.30;;;;;;6283576;27;84056;-69
2022/11/21 07:52:09;;;;;;;2.38;1.33;;;21.70;91.30;;;;;;6282515;27;83246;-70
2022/11/21 07:55:11;;;;;;;2.75;1.02;;;21.70;91.30;;;;;;6283375;27;84125;-68
2022/11/21 07:58:15;;;;;;;1.85;1.02;;;21.70;91.30;;;;;;6280758;27;84722;-68
2022/11/21 08:01:18;;;;;;;2.60;1.27;;;21.70;91.30;;;;;;6280535;27;83744;-69
2022/11/21 08:04:20;;;;;;;1.67;1.10;;;21.70;91.30;;;;;;6283022;27;84387;-70
2022/11/21 08:07:23;;;;;;;2.00;1.00;;;21.70;91.70;;;;;;6283321;27;84307;-70
2022/11/21 08:10:25;;;;;;;2.00;1.10;;;21.70;91.30;;;;;;6277079;27;84187;-70
2022/11/21 08:13:29;;;;;;;1.48;0.90;;;21.70;91.20;;;;;;6279337;27;83088;-70
2022/11/21 08:16:33;;;;;;;0.82;0.80;;;21.70;91.20;;;;;;6280440;27;83352;-70
2022/11/21 08:19:35;;;;;;;2.97;1.20;;;21.70;91.20;;;;;;6275194;27;84470;-70
2022/11/21 08:22:40;;;;;;;1.50;1.08;;;21.70;91.20;;;;;;6283903;27;84095;-70
2022/11/21 08:25:43;;;;;;;1.95;1.10;;;21.70;91.60;;;;;;6284194;27;84933;-70
2022/11/21 08:28:46;;;;;;;2.15;1.10;;;21.70;91.20;;;;;;6283739;27;86152;-69
2022/11/21 08:31:49;;;;;;;1.40;1.00;;;21.80;91.20;;;;;;6274922;27;84530;-70
2022/11/21 08:34:51;;;;;;;1.40;0.88;;;21.70;91.20;;;;;;6280289;27;84230;-70
2022/11/21 08:37:57;;;;;;;1.60;0.98;;;21.70;91.20;;;;;;6269517;27;84072;-70
2022/11/21 08:44:18;;;;;;;2.25;0.95;;;21.80;91.20;;;;;;6284041;27;82284;-70
2022/11/21 08:47:22;;;;;;;2.03;1.10;;;21.70;91.10;;;;;;6283074;27;83466;-70
2022/11/21 08:50:24;;;;;;;0.98;0.70;;;21.70;91.10;;;;;;6280936;27;84145;-70
2022/11/21 08:53:26;;;;;;;1.05;0.93;;;21.80;91.20;;;;;;6282413;27;84235;-70
2022/11/21 08:56:29;;;;;;;2.15;1.00;;;21.70;91.10;;;;;;6281698;27;85064;-70
2022/11/21 08:59:31;;;;;;;1.63;0.95;;;21.80;91.10;;;;;;6279332;27;84382;-70
2022/11/21 09:02:35;;;;;;;1.17;0.90;;;21.80;91.10;;;;;;6282746;27;85517;-70
2022/11/21 09:05:37;;;;;;;2.08;0.90;;;21.80;91.10;;;;;;6283095;27;84070;-70
2022/11/21 09:08:39;;;;;;;1.42;1.08;;;21.80;91.10;;;;;;6286660;27;84253;-70
2022/11/21 09:11:41;;;;;;;1.05;0.90;;;21.80;91.10;;;;;;6284789;27;84028;-70
2022/11/21 09:18:06;;;;;;;2.17;1.00;;;21.80;91.10;;;;;;6283418;27;81560;-71
2022/11/21 09:21:09;;;;;;;1.17;0.90;;;21.80;91.10;;;;;;6286078;27;83985;-71
2022/11/21 09:24:11;;;;;;;1.38;0.98;;;21.80;91.10;;;;;;6273596;27;83688;-70
2022/11/21 09:27:13;;;;;;;1.50;0.95;;;21.80;91.10;;;;;;6284646;27;84946;-70
2022/11/21 09:30:15;;;;;;;1.33;0.95;;;21.80;91.10;;;;;;6272770;27;84101;-70
2022/11/21 09:33:18;;;;;;;0.85;0.73;;;21.80;91.10;;;;;;6286262;27;83013;-70
2022/11/21 09:36:20;;;;;;;1.25;1.00;;;21.80;91.00;;;;;;6281615;27;84149;-70
2022/11/21 09:39:23;;;;;;;1.52;1.05;;;21.80;91.10;;;;;;6277662;27;84258;-69
2022/11/21 09:42:48;;;;;;;2.58;1.33;;;21.80;91.00;;;;;;6284596;27;84213;-70
2022/11/21 09:45:52;;;;;;;1.20;0.80;;;21.80;91.00;;;;;;6285457;27;84919;-69
2022/11/21 09:48:58;;;;;;;2.00;1.30;;;21.80;91.10;;;;;;6285725;27;83351;-71
2022/11/21 09:52:01;;;;;;;3.22;1.27;;;21.80;91.00;;;;;;6285149;27;84093;-69
2022/11/21 09:55:08;;;;;;;1.45;1.00;;;21.80;91.40;;;;;;6285714;27;84144;-70
2022/11/21 09:58:19;;;;;;;1.08;0.90;;;21.80;91.00;;;;;;6270392;27;83927;-70
2022/11/21 10:01:21;;;;;;;1.35;0.90;;;21.80;91.00;;;;;;6277990;27;84173;-70
2022/11/21 10:04:25;;;;;;;1.80;1.10;;;21.80;91.00;;;;;;6285315;27;84106;-70
2022/11/21 10:07:32;;;;;;;1.50;1.02;;;21.80;91.00;;;;;;6277452;27;83006;-70
2022/11/21 10:10:50;;;;;;;1.40;1.00;;;21.80;91.00;;;;;;6275098;27;84207;-70
2022/11/21 10:14:07;;;;;;;1.63;1.00;;;21.80;91.00;;;;;;6274717;27;84211;-70
2022/11/21 10:17:18;;;;;;;2.83;1.50;;;21.80;91.00;;;;;;6274411;27;84118;-70
2022/11/21 10:20:40;;;;;;;1.33;1.02;;;21.80;91.00;;;;;;6285946;27;83553;-70
2022/11/21 10:24:12;;;;;;;1.02;0.85;;;21.80;91.00;;;;;;6283653;27;84271;-67
2022/11/21 10:27:18;;;;;;;1.17;0.95;;;21.80;91.00;;;;;;6283973;27;82934;-67
2022/11/21 10:30:21;;;;;;;1.45;1.05;;;21.80;91.00;;;;;;6284759;27;85094;-67
2022/11/21 10:33:30;;;;;;;1.63;1.10;;;21.80;91.00;;;;;;6286276;27;84132;-67
2022/11/21 10:36:37;;;;;;;1.10;1.00;;;21.80;91.00;;;;;;6271798;27;84114;-68
2022/11/21 10:39:44;;;;;;;1.05;0.95;;;21.80;91.00;;;;;;6285017;27;84331;-68
2022/11/21 10:42:53;;;;;;;1.17;0.93;;;21.90;91.00;;;;;;6284446;27;84154;-68
2022/11/21 10:45:54;;;;;;;1.10;0.90;;;21.80;91.00;;;;;;6283453;27;84555;-70
2022/11/21 10:48:59;;;;;;;1.80;1.10;;;21.80;91.00;;;;;;6282922;27;84159;-70
2022/11/21 10:52:07;;;;;;;1.67;1.13;;;21.80;91.00;;;;;;6285247;27;83561;-70
2022/11/21 10:55:11;;;;;;;1.65;1.10;;;21.80;91.00;;;;;;6285596;27;84102;-70
2022/11/21 10:58:18;;;;;;;1.10;1.00;;;21.80;91.00;;;;;;6285141;27;84151;-70
2022/11/21 11:01:23;;;;;;;1.60;1.10;;;21.90;91.00;;;;;;6267524;27;85036;-70
2022/11/21 11:04:27;;;;;;;1.35;1.02;;;21.80;91.00;;;;;;6283916;27;83833;-70
2022/11/21 11:07:31;;;;;;;1.40;1.00;;;21.90;91.00;;;;;;6283191;27;84251;-70
2022/11/21 11:10:34;;;;;;;0.95;0.82;;;21.80;91.00;;;;;;6276959;27;84135;-70
2022/11/21 11:13:55;;;;;;;1.25;1.02;;;21.80;91.00;;;;;;6283608;27;84600;-70
2022/11/21 11:16:58;;;;;;;0.80;0.80;;;21.80;91.00;;;;;;6283417;27;84014;-70
2022/11/21 11:20:02;;;;;;;1.40;0.90;;;21.80;91.00;;;;;;6284611;27;84105;-70
2022/11/21 11:23:27;;;;;;;1.35;1.00;;;21.80;91.00;;;;;;6284899;27;82244;-70
2022/11/21 11:26:31;;;;;;;1.15;1.00;;;21.80;91.00;;;;;;6283253;27;84617;-69
2022/11/21 11:29:41;;;;;;;0.80;0.80;;;21.80;91.00;;;;;;6284092;27;84139;-69
2022/11/21 11:32:43;;;;;;;1.00;0.90;;;21.90;91.00;;;;;;6283512;27;85214;-70
2022/11/21 11:35:45;;;;;;;1.80;1.20;;;21.80;91.00;;;;;;6283288;27;84112;-70
2022/11/21 11:38:53;;;;;;;1.63;1.15;;;21.90;91.00;;;;;;6283700;27;83779;-69
2022/11/21 11:49:13;;;;;;;1.00;0.90;;;21.80;90.90;;;;;;6284449;27;83724;-69
2022/11/21 11:52:15;;;;;;;1.05;0.95;;;21.80;90.90;;;;;;6284048;27;83049;-70
2022/11/21 11:55:23;;;;;;;1.40;1.08;;;21.90;91.00;;;;;;6283819;27;82347;-70
2022/11/21 11:58:29;;;;;;;0.98;0.90;;;21.80;90.90;;;;;;6284018;27;82979;-70
2022/11/21 12:01:37;;;;;;;1.52;1.13;;;21.80;90.90;;;;;;6284011;27;84402;-69
2022/11/21 12:04:46;;;;;;;1.65;1.00;;;21.80;90.90;;;;;;6283311;27;85066;-70
2022/11/21 12:07:58;;;;;;;1.20;0.95;;;21.80;90.90;;;;;;6283090;27;84014;-69
2022/11/21 12:18:23;;;;;;;1.20;0.90;;;21.90;91.00;;;;;;6283742;27;82262;-70
2022/11/21 12:21:26;;;;;;;1.67;1.20;;;21.80;91.10;;;;;;6282212;27;84306;-70
2022/11/21 12:24:29;;;;;;;3.03;1.60;;;21.80;91.00;;;;;;6282931;27;83118;-69
2022/11/21 12:27:33;;;;;;;1.60;1.10;;;21.90;91.00;;;;;;6284823;27;82383;-70
2022/11/21 12:31:01;;;;;;;1.15;0.82;;;21.90;90.90;;;;;;6282825;27;83103;-70
2022/11/21 12:34:13;;;;;;;2.25;1.45;;;21.90;90.90;;;;;;6265510;27;84327;-70
2022/11/21 12:37:30;;;;;;;1.92;1.10;;;21.90;90.90;;;;;;6272518;27;85253;-70
2022/11/21 12:40:46;;;;;;;1.10;0.93;;;21.90;90.90;;;;;;6275202;27;84214;-70
2022/11/21 12:43:56;;;;;;;1.85;1.20;;;21.90;90.90;;;;;;6287053;27;84128;-70
2022/11/21 12:47:15;;;;;;;1.52;1.10;;;21.90;90.90;;;;;;6275179;27;84077;-70
2022/11/21 12:57:13;;;;;;;1.05;0.88;;;21.90;90.90;;;;;;6287449;27;83848;-69
2022/11/21 13:00:23;;;;;;;2.17;1.25;;;21.90;90.90;;;;;;6287078;27;82273;-69
2022/11/21 13:03:50;;;;;;;2.72;1.45;;;21.90;90.90;;;;;;6286563;27;84016;-70
2022/11/21 13:06:53;;;;;;;0.80;0.80;;;21.90;90.90;;;;;;6286667;27;84190;-70
2022/11/21 13:09:57;;;;;;;0.93;0.80;;;21.90;90.90;;;;;;6281209;27;85091;-70
2022/11/21 13:13:09;;;;;;;1.05;0.90;;;21.90;90.90;;;;;;6280303;27;83357;-70
2022/11/21 13:16:35;;;;;;;1.50;1.05;;;21.90;90.90;;;;;;6285239;27;84049;-70
2022/11/21 13:19:45;;;;;;;0.80;0.77;;;21.90;90.90;;;;;;6285699;27;84108;-70
2022/11/21 13:22:55;;;;;;;1.35;0.93;;;21.90;90.90;;;;;;6286313;27;85078;-69
2022/11/21 13:25:57;;;;;;;1.80;1.08;;;21.90;90.90;;;;;;6276032;27;84089;-70
2022/11/21 13:29:08;;;;;;;1.10;0.88;;;21.90;90.90;;;;;;6276362;27;84142;-69
2022/11/21 13:32:39;;;;;;;0.85;0.80;;;21.90;90.90;;;;;;6286607;27;83497;-70
2022/11/21 13:36:05;;;;;;;1.33;1.17;;;21.90;90.90;;;;;;6274959;27;84420;-70
2022/11/21 13:39:32;;;;;;;1.42;0.90;;;21.90;90.90;;;;;;6277267;27;84213;-70
2022/11/21 13:43:09;;;;;;;0.80;0.77;;;21.90;90.90;;;;;;6283576;27;85517;-70
2022/11/21 13:46:50;;;;;;;1.00;0.90;;;21.90;90.90;;;;;;6283233;27;84060;-69
2022/11/21 13:50:04;;;;;;;1.20;0.90;;;21.90;90.90;;;;;;6286066;27;84236;-70
2022/11/21 13:53:21;;;;;;;0.85;0.70;;;21.90;90.90;;;;;;6284357;27;84131;-70
2022/11/21 13:56:35;;;;;;;1.10;0.75;;;21.90;90.90;;;;;;6286603;27;84101;-70
2022/11/21 13:59:59;;;;;;;0.70;0.70;;;21.90;90.90;;;;;;6281910;27;82971;-70
2022/11/21 14:03:28;;;;;;;1.35;0.82;;;21.90;90.90;;;;;;6274140;27;84229;-70
2022/11/21 14:06:42;;;;;;;1.25;0.85;;;21.90;90.90;;;;;;6275116;27;83462;-70
2022/11/21 14:09:48;;;;;;;1.23;0.93;;;21.90;90.90;;;;;;6272197;27;83887;-70
2022/11/21 14:12:51;;;;;;;0.73;0.73;;;21.90;90.90;;;;;;6276651;27;84202;-69
2022/11/21 14:16:05;;;;;;;1.50;0.90;;;21.90;90.90;;;;;;6284260;27;85455;-69
2022/11/21 14:19:13;;;;;;;0.80;0.80;;;21.90;90.90;;;;;;6282839;27;84404;-70
2022/11/21 14:22:26;;;;;;;1.13;1.00;;;21.90;90.90;;;;;;6277001;27;84297;-70
2022/11/21 14:25:35;;;;;;;1.00;0.90;;;21.90;90.90;;;;;;6285068;27;84113;-70
2022/11/21 14:28:37;;;;;;;1.10;0.85;;;21.90;90.90;;;;;;6284005;27;83107;-69
2022/11/21 14:31:46;;;;;;;0.90;0.73;;;21.90;90.90;;;;;;6284758;27;84433;-70
2022/11/21 14:34:48;;;;;;;0.98;0.80;;;21.90;90.90;;;;;;6284865;27;83995;-69
2022/11/21 14:37:51;;;;;;;1.63;0.80;;;21.90;90.90;;;;;;6284348;27;83542;-69
2022/11/21 14:41:18;;;;;;;1.13;0.90;;;21.90;90.90;;;;;;6284001;27;84086;-70
2022/11/21 14:44:21;;;;;;;0.88;0.80;;;21.90;90.90;;;;;;6285052;27;84265;-69
2022/11/21 14:47:23;;;;;;;0.80;0.80;;;21.90;90.90;;;;;;6284089;27;85274;-69
2022/11/21 14:50:28;;;;;;;1.55;0.95;;;21.90;90.90;;;;;;6282752;27;83217;-70
2022/11/21 14:53:32;;;;;;;1.17;1.00;;;21.90;90.90;;;;;;6284519;27;83211;-70
2022/11/21 14:56:34;;;;;;;0.95;0.88;;;21.90;90.80;;;;;;6274041;27;83103;-69
2022/11/21 14:59:41;;;;;;;1.33;0.90;;;21.90;90.80;;;;;;6280345;27;84257;-70
2022/11/21 15:02:44;;;;;;;1.13;0.90;;;21.90;90.80;;;;;;6284279;27;84091;-69
2022/11/21 15:05:48;;;;;;;1.10;1.00;;;21.90;90.80;;;;;;6284445;27;84548;-70
2022/11/21 15:08:53;;;;;;;0.88;0.88;;;21.90;90.80;;;;;;6285349;27;83861;-70
2022/11/21 15:12:01;;;;;;;1.30;1.10;;;21.90;90.80;;;;;;6282375;27;84145;-70
2022/11/21 15:15:09;;;;;;;1.00;0.90;;;21.90;90.80;;;;;;6280559;27;84422;-70
2022/11/21 15:18:15;;;;;;;1.08;0.98;;;21.90;90.80;;;;;;6282531;27;85042;-70
2022/11/21 15:21:17;;;;;;;1.50;1.05;;;21.90;90.80;;;;;;6282215;27;84013;-70
2022/11/21 15:24:30;;;;;;;1.88;1.20;;;21.90;90.80;;;;;;6284329;27;84638;-70
2022/11/21 15:27:33;;;;;;;2.03;1.35;;;21.90;90.80;;;;;;6283391;27;83246;-70
2022/11/21 15:30:36;;;;;;;1.02;0.88;;;21.90;90.70;;;;;;6280818;27;83016;-70
2022/11/21 15:33:53;;;;;;;0.80;0.80;;;21.90;90.70;;;;;;6283835;27;84425;-71
2022/11/21 15:37:07;;;;;;;1.00;0.90;;;21.90;90.70;;;;;;6284310;27;85743;-69
2022/11/21 15:40:19;;;;;;;1.08;0.85;;;21.90;90.70;;;;;;6285097;27;85290;-70
2022/11/21 15:43:34;;;;;;;1.38;1.10;;;21.90;90.80;;;;;;6284758;27;84343;-70
2022/11/21 15:46:40;;;;;;;1.20;1.00;;;21.80;90.80;;;;;;6271457;27;84145;-70
2022/11/21 15:49:42;;;;;;;0.95;0.85;;;21.80;90.80;;;;;;6283082;27;85704;-70
2022/11/21 15:52:46;;;;;;;1.20;1.10;;;21.80;90.80;;;;;;6283865;27;84155;-70
2022/11/21 15:55:50;;;;;;;1.08;0.90;;;21.80;90.80;;;;;;6282457;27;84123;-69
2022/11/21 15:58:52;;;;;;;1.38;0.90;;;21.80;90.80;;;;;;6283436;27;84374;-70
2022/11/21 16:01:54;;;;;;;1.20;1.10;;;21.80;90.80;;;;;;6283484;27;84271;-71
2022/11/21 16:04:56;;;;;;;0.75;0.75;;;21.80;90.70;;;;;;6283294;27;84184;-71
2022/11/21 16:07:58;;;;;;;1.10;1.00;;;21.80;90.70;;;;;;6282960;27;84286;-71
2022/11/21 16:11:01;;;;;;;2.83;1.40;;;21.80;90.70;;;;;;6270036;27;83550;-71
2022/11/21 16:14:06;;;;;;;2.47;1.33;;;21.80;90.70;;;;;;6284972;27;84044;-71
2022/11/21 16:17:08;;;;;;;1.20;1.00;;;21.80;90.70;;;;;;6287995;27;84187;-70
2022/11/21 16:20:11;;;;;;;1.27;0.98;;;21.80;90.70;;;;;;6287318;27;85489;-71
2022/11/21 16:23:13;;;;;;;1.00;0.90;;;21.80;90.70;;;;;;6286973;27;84109;-70
2022/11/21 16:26:18;;;;;;;1.35;1.00;;;21.80;90.60;;;;;;6287214;27;84234;-70
2022/11/21 16:29:20;;;;;;;1.98;1.20;;;21.80;90.60;;;;;;6287647;27;84038;-69
2022/11/21 16:32:25;;;;;;;1.05;0.93;;;21.80;90.60;;;;;;6286566;27;82991;-70
2022/11/21 16:35:27;;;;;;;1.33;1.10;;;21.90;90.60;;;;;;6288597;27;82960;-70
2022/11/21 16:38:30;;;;;;;1.10;1.00;;;21.80;90.60;;;;;;6286154;27;83282;-69
2022/11/21 16:41:34;;;;;;;1.30;1.02;;;21.80;90.50;;;;;;6287992;27;83811;-70
2022/11/21 16:44:36;;;;;;;1.45;1.00;;;21.80;90.50;;;;;;6286036;27;83335;-69